Main page
METAR-TAF:

METAR-TAF

Airports :

Manchester, England

Manchester Airport

latitude: 53-21N, longitude: 002-17W, elevation: 69 m

Current weather observation

The report was made 32 minutes ago, at 17:20 UTC
Wind 6 kt from the West
Temperature 10°C
Humidity 76%
Pressure 1015 hPa
Visibility 10 km or more
Broken clouds at a height of 3000 ft
Overcast at a height of 4100 ft
light rain

METAR: EGCC 281720Z AUTO 26006KT 9999 -RA BKN030 OVC041 10/06 Q1015 NOSIG

Time: 18:52 (17:52 UTC)

Forecast

The report was made 50 minutes ago, at 17:02 UTC
Forecast valid from 28 at 18 UTC to 29 at 24 UTC
Wind 3 kt from variable directions
Visibility 10 km or more
Scattered clouds at a height of 3500 ft
Probability 30%
from 29 at 03 UTC to 29 at 08 UTC
Visibility: 7000 m
Becoming
from 29 at 06 UTC to 29 at 09 UTC
Wind 10 kt from the South/Southeast

TAF: EGCC 281702Z 2818/2924 VRB03KT 9999 SCT035 PROB30 2903/2908 7000 BECMG 2906/2909 16010KT

Weather observations and forecasts of more than 4000 airports (METAR and TAF reports).

The available stations are represented by yellow and red dots on the map.

Hover mouse over dot to see the name of the station.

Then click to see weather observations and forecasts.

To change the map : click on the green buttons with a black cross to zoom in, on the green button with a dash to zoom out, or on the green arrows for adjacent maps.


METAR-TAF: